createdAt,value
2018-06-08T00:02:12.731Z,16.30
2018-06-08T00:04:39.624Z,16.23
2018-06-08T00:07:06.524Z,16.25
2018-06-08T00:09:33.459Z,16.31
2018-06-08T00:12:00.351Z,16.43
2018-06-08T00:14:27.241Z,16.32
2018-06-08T00:16:54.141Z,16.23
2018-06-08T00:19:21.031Z,16.11
2018-06-08T00:21:47.919Z,16.01
2018-06-08T00:24:14.813Z,16.06
2018-06-08T00:26:41.707Z,16.02
2018-06-08T00:29:08.596Z,16.01
2018-06-08T00:31:35.500Z,16.05
2018-06-08T00:34:02.387Z,16.31
2018-06-08T00:36:29.281Z,16.08
2018-06-08T00:38:56.179Z,15.92
2018-06-08T00:41:23.071Z,15.80
2018-06-08T00:43:49.954Z,15.89
2018-06-08T00:46:16.860Z,15.96
2018-06-08T00:48:43.755Z,15.84
2018-06-08T00:51:10.651Z,15.75
2018-06-08T00:53:37.524Z,15.66
2018-06-08T00:56:04.943Z,15.89
2018-06-08T00:58:31.836Z,15.64
2018-06-08T01:00:58.717Z,15.54
2018-06-08T01:03:25.604Z,15.45
2018-06-08T01:05:52.501Z,15.51
2018-06-08T01:08:19.407Z,15.52
2018-06-08T01:10:46.288Z,15.56
2018-06-08T01:13:13.180Z,15.58
2018-06-08T01:15:40.832Z,15.76
2018-06-08T01:18:07.844Z,15.69
2018-06-08T01:20:34.748Z,15.74
2018-06-08T01:23:01.674Z,15.59
2018-06-08T01:25:28.579Z,15.58
2018-06-08T01:27:55.467Z,15.71
2018-06-08T01:30:22.373Z,15.73
2018-06-08T01:32:49.264Z,15.38
2018-06-08T01:35:16.152Z,15.30
2018-06-08T01:37:43.067Z,15.27
2018-06-08T01:40:09.953Z,15.23
2018-06-08T01:42:36.836Z,15.23
2018-06-08T01:45:03.766Z,15.20
2018-06-08T01:47:30.653Z,15.20
2018-06-08T01:49:57.532Z,15.36
2018-06-08T01:52:24.416Z,15.41
2018-06-08T01:54:51.303Z,15.31
2018-06-08T01:57:18.188Z,15.18
2018-06-08T01:59:45.068Z,15.09
2018-06-08T02:02:11.967Z,15.13
2018-06-08T02:04:38.841Z,15.17
2018-06-08T02:07:05.740Z,14.88
2018-06-08T02:09:32.943Z,14.81
2018-06-08T02:11:59.887Z,14.84
2018-06-08T02:14:26.752Z,14.84
2018-06-08T02:16:53.645Z,15.09
2018-06-08T02:19:21.024Z,15.03
2018-06-08T02:21:47.914Z,14.85
2018-06-08T02:24:14.796Z,14.77
2018-06-08T02:26:41.688Z,14.99
2018-06-08T02:29:08.564Z,14.87
2018-06-08T02:31:35.461Z,14.69
2018-06-08T02:34:02.353Z,14.63
2018-06-08T02:36:29.264Z,14.62
2018-06-08T02:38:56.133Z,14.61
2018-06-08T02:41:23.064Z,14.58
2018-06-08T02:43:49.961Z,14.53
2018-06-08T02:46:16.870Z,14.69
2018-06-08T02:48:43.916Z,14.54
2018-06-08T02:51:10.816Z,14.51
2018-06-08T02:53:37.745Z,14.48
2018-06-08T02:56:04.676Z,14.47
2018-06-08T02:58:31.581Z,14.67
2018-06-08T03:00:58.487Z,14.85
2018-06-08T03:03:25.390Z,14.64
2018-06-08T03:05:52.308Z,14.58
2018-06-08T03:08:19.209Z,14.62
2018-06-08T03:10:46.084Z,14.84
2018-06-08T03:13:12.986Z,14.94
2018-06-08T03:15:39.885Z,14.71
2018-06-08T03:18:06.764Z,14.67
2018-06-08T03:20:33.659Z,14.74
2018-06-08T03:23:00.561Z,14.75
2018-06-08T03:25:27.452Z,14.77
2018-06-08T03:27:54.348Z,14.75
2018-06-08T03:30:21.232Z,14.84
2018-06-08T03:32:48.151Z,14.88
2018-06-08T03:35:15.061Z,14.95
2018-06-08T03:37:41.965Z,14.97
2018-06-08T03:40:08.872Z,15.03
2018-06-08T03:42:35.776Z,15.06
2018-06-08T03:45:02.723Z,15.14
2018-06-08T03:47:29.630Z,15.11
2018-06-08T03:49:56.524Z,15.15
2018-06-08T03:52:23.433Z,15.13
2018-06-08T03:54:50.307Z,15.16
2018-06-08T03:57:17.196Z,15.17
2018-06-08T03:59:44.092Z,15.28
2018-06-08T04:02:10.983Z,15.33
2018-06-08T04:04:37.877Z,15.44
2018-06-08T04:07:04.776Z,15.49
2018-06-08T04:09:31.665Z,15.69
2018-06-08T04:11:58.565Z,15.82
2018-06-08T04:14:25.444Z,15.67
2018-06-08T04:16:52.340Z,15.73
2018-06-08T04:19:19.224Z,15.86
2018-06-08T04:21:46.140Z,15.93
2018-06-08T04:24:13.036Z,16.08
2018-06-08T04:26:39.936Z,16.18
2018-06-08T04:29:06.834Z,16.30
2018-06-08T04:31:33.748Z,16.47
2018-06-08T04:34:00.649Z,16.46
2018-06-08T04:36:27.580Z,16.53
2018-06-08T04:38:54.536Z,16.62
2018-06-08T04:41:21.432Z,16.72
2018-06-08T04:43:48.362Z,16.83
2018-06-08T04:46:15.251Z,16.96
2018-06-08T04:48:42.157Z,17.11
2018-06-08T04:51:09.051Z,17.13
2018-06-08T04:53:35.948Z,17.20
2018-06-08T04:56:02.856Z,17.35
2018-06-08T04:58:29.752Z,17.41
2018-06-08T05:00:56.643Z,17.54
2018-06-08T05:03:23.541Z,17.54
2018-06-08T05:05:50.441Z,17.61
2018-06-08T05:08:17.344Z,17.66
2018-06-08T05:10:44.248Z,17.69
2018-06-08T05:13:11.155Z,17.83
2018-06-08T05:15:38.035Z,17.96
2018-06-08T05:18:04.959Z,18.14
2018-06-08T05:20:31.847Z,18.10
2018-06-08T05:22:58.756Z,18.23
2018-06-08T05:25:25.664Z,18.38
2018-06-08T05:27:52.584Z,18.43
2018-06-08T05:30:21.764Z,18.69
2018-06-08T05:32:48.678Z,18.86
2018-06-08T05:35:15.572Z,18.94
2018-06-08T05:37:42.520Z,19.13
2018-06-08T05:40:09.425Z,19.21
2018-06-08T05:42:36.369Z,19.29
2018-06-08T05:45:03.324Z,19.46
2018-06-08T05:47:30.253Z,19.52
2018-06-08T05:49:57.169Z,19.50
2018-06-08T05:52:24.072Z,19.56
2018-06-08T05:54:51.006Z,19.83
2018-06-08T05:57:17.892Z,19.92
2018-06-08T05:59:44.821Z,19.86
2018-06-08T06:02:11.732Z,20.17
2018-06-08T06:04:38.632Z,20.36
2018-06-08T06:07:05.629Z,20.22
2018-06-08T06:09:32.539Z,20.43
2018-06-08T06:11:59.441Z,20.72
2018-06-08T06:14:26.352Z,20.78
2018-06-08T06:16:53.269Z,20.83
2018-06-08T06:19:20.181Z,20.95
2018-06-08T06:21:47.088Z,21.12
2018-06-08T06:24:13.996Z,21.20
2018-06-08T06:26:40.892Z,21.19
2018-06-08T06:29:07.796Z,21.52
2018-06-08T06:31:34.704Z,21.59
2018-06-08T06:34:01.622Z,21.50
2018-06-08T06:36:28.528Z,21.52
2018-06-08T06:38:55.435Z,21.59
2018-06-08T06:41:22.335Z,21.57
2018-06-08T06:43:49.235Z,21.86
2018-06-08T06:46:16.171Z,21.92
2018-06-08T06:48:43.077Z,22.20
2018-06-08T06:51:09.976Z,21.96
2018-06-08T06:53:36.892Z,22.06
2018-06-08T06:56:03.832Z,22.14
2018-06-08T06:58:30.749Z,22.25
2018-06-08T07:00:57.635Z,22.36
2018-06-08T07:03:24.569Z,22.45
2018-06-08T07:05:51.480Z,22.51
2018-06-08T07:08:18.394Z,22.65
2018-06-08T07:10:45.293Z,22.32
2018-06-08T07:13:12.216Z,22.43
2018-06-08T07:15:39.112Z,23.01
2018-06-08T07:18:06.020Z,22.98
2018-06-08T07:20:32.939Z,23.09
2018-06-08T07:22:59.844Z,23.24
2018-06-08T07:25:26.760Z,23.65
2018-06-08T07:27:53.656Z,23.96
2018-06-08T07:30:20.568Z,24.09
2018-06-08T07:32:47.477Z,23.95
2018-06-08T07:35:14.384Z,23.84
2018-06-08T07:37:41.264Z,24.19
2018-06-08T07:40:08.227Z,23.88
2018-06-08T07:42:35.079Z,24.15
2018-06-08T07:45:01.976Z,24.67
2018-06-08T07:47:28.871Z,24.79
2018-06-08T07:49:55.772Z,24.57
2018-06-08T07:52:22.674Z,23.99
2018-06-08T07:54:49.572Z,24.01
2018-06-08T07:57:16.456Z,23.95
2018-06-08T07:59:43.366Z,23.69
2018-06-08T08:02:10.272Z,23.53
2018-06-08T08:04:37.180Z,23.85
2018-06-08T08:07:04.178Z,24.27
2018-06-08T08:09:31.084Z,24.27
2018-06-08T08:11:57.976Z,24.53
2018-06-08T08:14:24.911Z,24.93
2018-06-08T08:16:51.824Z,24.83
2018-06-08T08:19:18.780Z,25.23
2018-06-08T08:21:45.642Z,24.88
2018-06-08T08:24:12.520Z,25.44
2018-06-08T08:26:39.413Z,25.61
2018-06-08T08:29:06.295Z,25.78
2018-06-08T08:31:33.183Z,25.88
2018-06-08T08:34:00.048Z,25.63
2018-06-08T08:36:26.988Z,25.82
2018-06-08T08:38:53.847Z,26.23
2018-06-08T08:41:20.753Z,25.75
2018-06-08T08:43:47.616Z,25.94
2018-06-08T08:46:14.489Z,26.12
2018-06-08T08:48:41.398Z,25.98
2018-06-08T08:51:08.294Z,25.69
2018-06-08T08:53:35.167Z,26.06
2018-06-08T08:56:02.062Z,25.73
2018-06-08T08:58:28.945Z,26.16
2018-06-08T09:00:55.836Z,26.16
2018-06-08T09:03:22.703Z,26.02
2018-06-08T09:05:49.587Z,26.32
2018-06-08T09:08:16.488Z,26.18
2018-06-08T09:10:43.372Z,26.45
2018-06-08T09:13:10.243Z,26.42
2018-06-08T09:15:37.110Z,26.52
2018-06-08T09:18:04.226Z,26.71
2018-06-08T09:20:31.217Z,26.48
2018-06-08T09:22:58.095Z,26.42
2018-06-08T09:25:24.984Z,26.65
2018-06-08T09:27:51.868Z,26.69
2018-06-08T09:30:18.763Z,26.76
2018-06-08T09:32:45.640Z,26.23
2018-06-08T09:35:13.604Z,26.20
2018-06-08T09:37:40.482Z,26.74
2018-06-08T09:40:07.356Z,25.86
2018-06-08T09:42:34.255Z,25.90
2018-06-08T09:45:01.141Z,25.92
2018-06-08T09:47:28.048Z,26.23
2018-06-08T09:49:54.958Z,26.50
2018-06-08T09:52:21.857Z,26.75
2018-06-08T09:54:48.791Z,25.95
2018-06-08T09:57:15.667Z,26.10
2018-06-08T09:59:42.568Z,26.29
2018-06-08T10:02:09.475Z,26.31
2018-06-08T10:04:37.032Z,27.05
2018-06-08T10:07:03.963Z,27.14
2018-06-08T10:09:30.849Z,26.81
2018-06-08T10:11:57.812Z,27.02
2018-06-08T10:14:24.712Z,27.71
2018-06-08T10:16:51.613Z,27.17
2018-06-08T10:19:18.560Z,26.91
2018-06-08T10:21:45.477Z,27.00
2018-06-08T10:24:12.404Z,26.92
2018-06-08T10:26:39.296Z,27.09
2018-06-08T10:29:06.229Z,28.01
2018-06-08T10:31:33.107Z,27.81
2018-06-08T10:34:00.023Z,27.84
2018-06-08T10:36:27.779Z,28.11
2018-06-08T10:38:54.708Z,27.62
2018-06-08T10:41:21.617Z,28.09
2018-06-08T10:43:48.520Z,27.56
2018-06-08T10:46:15.412Z,27.19
2018-06-08T10:48:42.320Z,27.14
2018-06-08T10:51:09.209Z,27.72
2018-06-08T10:53:36.116Z,27.39
2018-06-08T10:56:03.116Z,27.12
2018-06-08T10:58:30.229Z,27.29
2018-06-08T11:00:57.141Z,27.59
2018-06-08T11:03:24.089Z,27.31
2018-06-08T11:05:51.308Z,27.36
2018-06-08T11:08:18.556Z,27.35
2018-06-08T11:10:45.451Z,27.52
2018-06-08T11:13:12.475Z,27.88
2018-06-08T11:15:39.360Z,27.19
2018-06-08T11:18:06.273Z,27.63
2018-06-08T11:20:33.156Z,29.01
2018-06-08T11:23:00.070Z,27.99
2018-06-08T11:25:27.011Z,27.68
2018-06-08T11:27:53.925Z,27.83
2018-06-08T11:30:20.816Z,28.61
2018-06-08T11:32:47.708Z,28.33
2018-06-08T11:35:14.612Z,28.27
2018-06-08T11:37:41.485Z,28.04
2018-06-08T11:40:08.376Z,28.23
2018-06-08T11:42:35.273Z,29.01
2018-06-08T11:45:02.206Z,29.19
2018-06-08T11:47:29.109Z,28.30
2018-06-08T11:49:56.020Z,28.85
2018-06-08T11:52:22.917Z,28.45
2018-06-08T11:54:49.829Z,28.75
2018-06-08T11:57:16.713Z,28.14
2018-06-08T11:59:43.619Z,28.33
2018-06-08T12:02:10.512Z,28.30
2018-06-08T12:04:37.432Z,29.08
2018-06-08T12:07:04.351Z,29.23
2018-06-08T12:09:31.270Z,28.27
2018-06-08T12:11:58.148Z,28.80
2018-06-08T12:14:25.056Z,29.37
2018-06-08T12:16:51.963Z,29.09
2018-06-08T12:19:18.881Z,28.52
2018-06-08T12:21:45.781Z,28.98
2018-06-08T12:24:12.674Z,29.01
2018-06-08T12:26:39.557Z,29.27
2018-06-08T12:29:06.429Z,29.94
2018-06-08T12:31:33.320Z,29.99
2018-06-08T12:34:00.196Z,29.54
2018-06-08T12:36:27.095Z,29.39
2018-06-08T12:38:53.972Z,29.49
2018-06-08T12:41:20.868Z,28.82
2018-06-08T12:43:47.756Z,29.50
2018-06-08T12:46:14.648Z,28.54
2018-06-08T12:48:41.533Z,28.46
2018-06-08T12:51:08.597Z,29.08
2018-06-08T12:53:35.480Z,30.04
2018-06-08T12:56:02.392Z,29.31
2018-06-08T12:58:29.257Z,29.83
2018-06-08T13:00:56.135Z,28.82
2018-06-08T13:03:23.017Z,29.29
2018-06-08T13:05:49.897Z,28.87
2018-06-08T13:08:16.804Z,29.18
2018-06-08T13:10:43.719Z,29.67
2018-06-08T13:13:10.599Z,29.44
2018-06-08T13:15:37.502Z,28.97
2018-06-08T13:18:04.533Z,29.48
2018-06-08T13:20:31.444Z,29.65
2018-06-08T13:22:58.341Z,29.22
2018-06-08T13:25:25.240Z,28.78
2018-06-08T13:27:52.148Z,29.70
2018-06-08T13:30:19.945Z,29.03
2018-06-08T13:32:46.843Z,29.27
2018-06-08T13:35:13.784Z,29.24
2018-06-08T13:37:40.693Z,29.36
2018-06-08T13:40:07.589Z,29.10
2018-06-08T13:42:34.564Z,28.78
2018-06-08T13:45:01.460Z,29.33
2018-06-08T13:47:28.413Z,29.46
2018-06-08T13:49:55.307Z,29.61
2018-06-08T13:52:22.196Z,29.49
2018-06-08T13:54:49.097Z,29.24
2018-06-08T13:57:16.025Z,29.23
2018-06-08T13:59:42.911Z,28.90
2018-06-08T14:02:09.801Z,28.42
2018-06-08T14:04:36.700Z,28.92
2018-06-08T14:07:03.687Z,28.93
2018-06-08T14:09:30.583Z,28.52
2018-06-08T14:11:57.523Z,28.79
2018-06-08T14:14:24.394Z,28.98
2018-06-08T14:16:51.312Z,28.97
2018-06-08T14:19:18.210Z,28.72
2018-06-08T14:21:45.103Z,29.32
2018-06-08T14:24:12.008Z,28.69
2018-06-08T14:26:38.887Z,28.98
2018-06-08T14:29:05.765Z,28.76
2018-06-08T14:31:32.664Z,28.66
2018-06-08T14:33:59.566Z,28.97
2018-06-08T14:36:26.478Z,28.52
2018-06-08T14:38:53.361Z,28.13
2018-06-08T14:41:20.269Z,28.28
2018-06-08T14:43:47.142Z,28.13
2018-06-08T14:46:14.029Z,27.85
2018-06-08T14:48:40.904Z,27.96
2018-06-08T14:51:07.802Z,27.94
2018-06-08T14:53:34.687Z,28.39
2018-06-08T14:56:01.557Z,28.10
2018-06-08T14:58:28.436Z,27.94
2018-06-08T15:00:55.311Z,27.70
2018-06-08T15:03:22.188Z,27.55
2018-06-08T15:05:49.054Z,27.66
2018-06-08T15:08:15.917Z,27.41
2018-06-08T15:10:42.788Z,27.59
2018-06-08T15:13:09.663Z,27.58
2018-06-08T15:15:36.556Z,27.67
2018-06-08T15:18:03.465Z,27.59
2018-06-08T15:20:30.348Z,27.60
2018-06-08T15:22:57.247Z,27.72
2018-06-08T15:25:24.133Z,27.52
2018-06-08T15:27:51.032Z,27.58
2018-06-08T15:30:17.919Z,27.70
2018-06-08T15:32:44.816Z,27.34
2018-06-08T15:35:11.708Z,27.13
2018-06-08T15:37:38.647Z,27.32
2018-06-08T15:40:05.570Z,27.32
2018-06-08T15:42:32.469Z,27.29
2018-06-08T15:44:59.368Z,27.31
2018-06-08T15:47:26.289Z,27.03
2018-06-08T15:49:53.182Z,26.95
2018-06-08T15:52:20.093Z,27.00
2018-06-08T15:54:46.998Z,26.85
2018-06-08T15:57:13.893Z,27.29
2018-06-08T15:59:40.793Z,26.93
2018-06-08T16:02:07.689Z,27.10
2018-06-08T16:04:34.607Z,26.95
2018-06-08T16:07:01.504Z,27.02
2018-06-08T16:09:28.415Z,26.85
2018-06-08T16:11:55.301Z,26.73
2018-06-08T16:14:22.223Z,26.72
2018-06-08T16:16:49.138Z,26.66
2018-06-08T16:19:16.052Z,26.33
2018-06-08T16:21:42.938Z,26.62
2018-06-08T16:24:09.823Z,26.54
2018-06-08T16:26:36.702Z,26.37
2018-06-08T16:29:03.612Z,26.46
2018-06-08T16:31:30.497Z,26.53
2018-06-08T16:33:57.383Z,26.46
2018-06-08T16:36:24.269Z,26.30
2018-06-08T16:38:51.152Z,26.61
2018-06-08T16:41:18.021Z,26.57
2018-06-08T16:43:44.918Z,26.22
2018-06-08T16:46:11.800Z,26.09
2018-06-08T16:48:38.686Z,26.21
2018-06-08T16:51:05.900Z,26.07
2018-06-08T16:53:32.787Z,26.14
2018-06-08T16:55:59.657Z,25.94
2018-06-08T16:58:26.532Z,25.92
2018-06-08T17:00:53.429Z,25.97
2018-06-08T17:03:20.322Z,26.01
2018-06-08T17:05:47.214Z,26.16
2018-06-08T17:08:14.096Z,25.74
2018-06-08T17:10:40.997Z,25.76
2018-06-08T17:13:08.108Z,25.63
2018-06-08T17:15:35.001Z,25.47
2018-06-08T17:18:01.893Z,25.60
2018-06-08T17:20:28.780Z,25.51
2018-06-08T17:22:55.694Z,25.45
2018-06-08T17:25:22.617Z,25.30
2018-06-08T17:27:49.516Z,25.18
2018-06-08T17:30:16.433Z,25.28
2018-06-08T17:32:43.316Z,25.22
2018-06-08T17:35:10.212Z,25.15
2018-06-08T17:37:37.112Z,25.06
2018-06-08T17:40:04.324Z,25.09
2018-06-08T17:42:31.221Z,25.18
2018-06-08T17:44:58.139Z,25.02
2018-06-08T17:47:25.053Z,25.00
2018-06-08T17:52:26.100Z,24.85
2018-06-08T17:54:53.004Z,24.81
2018-06-08T17:57:19.985Z,24.79
2018-06-08T17:59:46.812Z,24.55
2018-06-08T18:02:13.716Z,24.65
2018-06-08T18:04:40.620Z,24.62
2018-06-08T18:07:07.526Z,24.50
2018-06-08T18:09:34.431Z,24.53
2018-06-08T18:12:01.324Z,24.69
2018-06-08T18:14:28.232Z,25.04
2018-06-08T18:16:55.148Z,24.63
2018-06-08T18:19:22.061Z,24.41
2018-06-08T18:21:48.968Z,24.01
2018-06-08T18:24:15.846Z,23.91
2018-06-08T18:26:42.732Z,23.79
2018-06-08T18:29:09.603Z,23.80
2018-06-08T18:31:36.488Z,23.76
2018-06-08T18:34:03.448Z,23.68
2018-06-08T18:36:30.341Z,23.59
2018-06-08T18:38:57.223Z,23.52
2018-06-08T18:41:24.144Z,23.52
2018-06-08T18:43:51.012Z,23.50
2018-06-08T18:46:17.887Z,23.45
2018-06-08T18:48:44.756Z,23.39
2018-06-08T18:51:11.651Z,23.41
2018-06-08T18:53:38.512Z,23.39
2018-06-08T18:56:05.416Z,23.19
2018-06-08T18:58:32.300Z,23.17
2018-06-08T19:00:59.178Z,23.02
2018-06-08T19:03:26.065Z,22.98
2018-06-08T19:05:52.952Z,22.94
2018-06-08T19:08:19.834Z,22.84
2018-06-08T19:10:46.728Z,22.94
2018-06-08T19:13:13.625Z,22.64
2018-06-08T19:15:40.512Z,22.55
2018-06-08T19:18:07.392Z,22.44
2018-06-08T19:20:34.263Z,22.47
2018-06-08T19:23:01.174Z,22.47
2018-06-08T19:25:28.087Z,22.30
2018-06-08T19:27:54.996Z,22.28
2018-06-08T19:30:21.912Z,22.33
2018-06-08T19:32:48.817Z,22.14
2018-06-08T19:35:15.724Z,22.19
2018-06-08T19:37:42.630Z,22.05
2018-06-08T19:40:09.532Z,22.01
2018-06-08T19:42:36.431Z,21.88
2018-06-08T19:45:03.780Z,21.81
2018-06-08T19:47:30.688Z,21.80
2018-06-08T19:49:57.572Z,21.75
2018-06-08T19:52:24.477Z,21.68
2018-06-08T19:54:51.388Z,21.65
2018-06-08T19:57:18.370Z,21.61
2018-06-08T19:59:45.289Z,21.64
2018-06-08T20:02:12.260Z,21.58
2018-06-08T20:04:39.171Z,21.59
2018-06-08T20:07:06.084Z,21.38
2018-06-08T20:09:32.999Z,21.36
2018-06-08T20:11:59.904Z,21.40
2018-06-08T20:14:26.801Z,21.25
2018-06-08T20:16:53.700Z,21.27
2018-06-08T20:19:21.391Z,21.33
2018-06-08T20:21:48.324Z,21.10
2018-06-08T20:24:15.230Z,21.08
2018-06-08T20:26:42.136Z,21.00
2018-06-08T20:29:09.055Z,21.02
2018-06-08T20:31:35.975Z,20.89
2018-06-08T20:34:02.856Z,20.91
2018-06-08T20:36:29.753Z,20.85
2018-06-08T20:38:56.636Z,20.80
2018-06-08T20:41:23.544Z,20.80
2018-06-08T20:43:50.428Z,20.77
2018-06-08T20:46:17.331Z,20.77
2018-06-08T20:48:44.210Z,20.75
2018-06-08T20:51:11.110Z,20.70
2018-06-08T20:53:38.000Z,20.71
2018-06-08T20:56:04.925Z,20.84
2018-06-08T20:58:31.815Z,20.73
2018-06-08T21:00:58.708Z,20.65
2018-06-08T21:03:25.640Z,20.66
2018-06-08T21:05:52.525Z,20.60
2018-06-08T21:08:19.421Z,20.63
2018-06-08T21:10:46.321Z,20.61
2018-06-08T21:13:13.225Z,20.53
2018-06-08T21:15:40.120Z,20.53
2018-06-08T21:18:07.007Z,20.52
2018-06-08T21:20:33.888Z,20.42
2018-06-08T21:23:00.799Z,20.42
2018-06-08T21:25:27.689Z,20.41
2018-06-08T21:27:54.595Z,20.33
2018-06-08T21:30:21.487Z,20.24
2018-06-08T21:32:48.390Z,20.13
2018-06-08T21:35:15.307Z,20.19
2018-06-08T21:37:42.208Z,20.07
2018-06-08T21:40:09.116Z,20.02
2018-06-08T21:42:36.012Z,20.02
2018-06-08T21:45:02.939Z,19.98
2018-06-08T21:47:29.835Z,19.85
2018-06-08T21:49:56.735Z,19.78
2018-06-08T21:52:23.646Z,19.78
2018-06-08T21:54:50.545Z,19.68
2018-06-08T21:57:17.474Z,19.77
2018-06-08T21:59:44.380Z,19.61
2018-06-08T22:02:11.315Z,19.67
2018-06-08T22:04:38.228Z,19.70
2018-06-08T22:07:05.182Z,19.65
2018-06-08T22:09:32.093Z,19.63
2018-06-08T22:11:59.000Z,19.39
2018-06-08T22:14:25.984Z,19.34
2018-06-08T22:16:52.828Z,19.32
2018-06-08T22:19:19.744Z,19.27
2018-06-08T22:21:46.664Z,19.22
2018-06-08T22:24:13.568Z,19.20
2018-06-08T22:26:40.463Z,19.12
2018-06-08T22:29:07.397Z,19.06
2018-06-08T22:31:34.279Z,18.98
2018-06-08T22:34:01.180Z,19.14
2018-06-08T22:36:28.073Z,19.15
2018-06-08T22:38:54.998Z,19.03
2018-06-08T22:41:21.911Z,19.04
2018-06-08T22:43:48.812Z,18.98
2018-06-08T22:46:15.732Z,18.91
2018-06-08T22:48:42.652Z,18.90
2018-06-08T22:51:09.555Z,18.98
2018-06-08T22:53:36.461Z,18.94
2018-06-08T22:56:03.380Z,18.96
2018-06-08T22:58:30.287Z,18.83
2018-06-08T23:00:57.270Z,18.75
2018-06-08T23:03:24.111Z,18.67
2018-06-08T23:05:51.032Z,18.69
2018-06-08T23:08:17.965Z,18.89
2018-06-08T23:10:44.870Z,18.73
2018-06-08T23:13:11.787Z,18.69
2018-06-08T23:15:38.679Z,18.62
2018-06-08T23:18:05.592Z,18.50
2018-06-08T23:20:32.492Z,18.47
2018-06-08T23:22:59.384Z,18.49
2018-06-08T23:25:26.280Z,18.41
2018-06-08T23:27:53.203Z,18.48
2018-06-08T23:30:20.089Z,18.45
2018-06-08T23:32:46.973Z,18.31
2018-06-08T23:35:13.863Z,18.27
2018-06-08T23:37:40.752Z,18.22
2018-06-08T23:40:07.653Z,18.24
2018-06-08T23:42:34.560Z,18.15
2018-06-08T23:45:01.466Z,18.17
2018-06-08T23:47:28.365Z,18.19
2018-06-08T23:49:55.256Z,18.32
2018-06-08T23:52:22.152Z,18.37
2018-06-08T23:54:49.047Z,18.25
2018-06-08T23:57:15.912Z,18.21
2018-06-08T23:59:43.316Z,18.22
